Time;durP1;ratioP1;P1;durP2;ratioP2;P2;SDS_P1;SDS_P2;PMS_P1;PMS_P2;Temp;Humidity;BMP_temperature;BMP_pressure;BME280_temperature;BME280_humidity;BME280_pressure;Samples;Min_cycle;Max_cycle;Signal;HPM_P1;HPM_P2
2023/04/25 00:01:49;;;;;;;6.45;2.47;;;;;;;5.68;100.00;99966.25;4924890;29;20055;-74
2023/04/25 00:04:15;;;;;;;7.90;2.17;;;;;;;5.63;100.00;99966.72;4924173;29;20052;-74
2023/04/25 00:06:42;;;;;;;9.45;2.40;;;;;;;5.66;100.00;99974.38;4925023;29;20052;-74
2023/04/25 00:09:10;;;;;;;8.15;2.30;;;;;;;5.58;100.00;99976.94;4923001;29;20421;-74
2023/04/25 00:11:37;;;;;;;8.48;2.20;;;;;;;5.60;100.00;99964.34;4919524;29;20056;-74
2023/04/25 00:14:04;;;;;;;4.70;2.15;;;;;;;5.70;100.00;99969.63;4922743;29;20497;-73
2023/04/25 00:16:33;;;;;;;9.77;2.40;;;;;;;5.65;100.00;99967.38;4922194;29;20549;-72
2023/04/25 00:19:03;;;;;;;7.85;2.28;;;;;;;5.69;100.00;99966.09;4921852;29;20048;-73
2023/04/25 00:21:31;;;;;;;10.98;2.83;;;;;;;5.62;100.00;99962.34;4923174;29;20076;-73
2023/04/25 00:23:58;;;;;;;13.75;2.58;;;;;;;5.67;100.00;99964.59;4921925;29;20075;-72
2023/04/25 00:26:24;;;;;;;9.18;2.90;;;;;;;5.61;100.00;99965.19;4923131;29;20052;-74
2023/04/25 00:28:51;;;;;;;12.70;2.55;;;;;;;5.70;100.00;99965.13;4922037;29;20067;-73
2023/04/25 00:31:18;;;;;;;8.15;2.30;;;;;;;5.66;100.00;99970.88;4921173;29;20111;-74
2023/04/25 00:33:45;;;;;;;11.43;2.63;;;;;;;5.64;100.00;99968.38;4904800;29;20056;-74
2023/04/25 00:36:11;;;;;;;8.40;2.60;;;;;;;5.67;100.00;99967.25;4920560;29;20424;-73
2023/04/25 00:38:38;;;;;;;7.43;2.40;;;;;;;5.70;100.00;99957.16;4920660;29;20140;-73
2023/04/25 00:41:07;;;;;;;8.90;2.47;;;;;;;5.73;100.00;99961.31;4921749;29;20059;-73
2023/04/25 00:43:35;;;;;;;9.82;2.70;;;;;;;5.61;100.00;99952.72;4922166;29;20058;-73
2023/04/25 00:46:01;;;;;;;14.63;2.53;;;;;;;5.69;100.00;99957.28;4921752;29;20107;-73
2023/04/25 00:48:28;;;;;;;9.82;2.90;;;;;;;5.69;100.00;99958.13;4927083;29;20052;-73
2023/04/25 00:50:57;;;;;;;9.05;3.33;;;;;;;5.58;100.00;99958.31;4929825;29;20556;-73
2023/04/25 00:53:25;;;;;;;15.00;3.20;;;;;;;5.60;100.00;99960.84;4924306;29;20050;-73
2023/04/25 00:55:53;;;;;;;10.40;3.22;;;;;;;5.63;100.00;99956.06;4924366;29;20063;-73
2023/04/25 00:58:21;;;;;;;7.90;2.65;;;;;;;5.69;100.00;99960.78;4923220;29;20116;-73
2023/04/25 01:00:49;;;;;;;7.60;2.85;;;;;;;5.67;100.00;99964.59;4919981;29;20044;-73
2023/04/25 01:03:19;;;;;;;9.23;3.17;;;;;;;5.62;100.00;99953.53;4919364;29;20056;-73
2023/04/25 01:09:33;;;;;;;12.70;3.50;;;;;;;5.60;100.00;99943.06;4923490;29;20051;-72
2023/04/25 01:12:00;;;;;;;13.05;3.47;;;;;;;5.45;100.00;99944.50;4923903;29;20112;-74
2023/04/25 01:14:27;;;;;;;17.10;3.25;;;;;;;5.42;100.00;99945.66;4927326;29;20048;-74
2023/04/25 01:16:54;;;;;;;7.53;3.10;;;;;;;5.56;100.00;99940.81;4928209;29;20131;-73
2023/04/25 01:19:21;;;;;;;17.45;3.55;;;;;;;5.56;100.00;99941.69;4925934;29;20059;-73
2023/04/25 01:21:48;;;;;;;11.13;3.33;;;;;;;5.64;100.00;99936.44;4926659;29;20099;-73
2023/04/25 01:24:14;;;;;;;9.05;2.95;;;;;;;5.52;100.00;99937.59;4925663;29;20052;-73
2023/04/25 01:26:49;;;;;;;12.18;4.32;;;;;;;5.58;100.00;99938.84;4926861;29;20131;-74
2023/04/25 01:29:17;;;;;;;10.88;3.50;;;;;;;5.62;100.00;99941.06;4921561;29;20425;-74
2023/04/25 01:31:44;;;;;;;17.15;3.75;;;;;;;5.54;100.00;99930.34;4905656;29;20079;-74
2023/04/25 01:34:12;;;;;;;9.45;3.25;;;;;;;5.49;100.00;99932.56;4919240;29;20055;-73
2023/04/25 01:36:39;;;;;;;10.63;2.97;;;;;;;5.56;100.00;99931.03;4921005;29;20124;-74
2023/04/25 01:39:07;;;;;;;8.90;2.97;;;;;;;5.53;100.00;99939.31;4920978;29;20048;-74
2023/04/25 01:41:34;;;;;;;11.00;3.15;;;;;;;5.52;100.00;99941.13;4918794;29;20135;-74
2023/04/25 01:44:01;;;;;;;10.25;3.53;;;;;;;5.56;100.00;99944.34;4920295;29;20048;-74
2023/04/25 01:46:28;;;;;;;9.40;2.53;;;;;;;5.55;100.00;99942.63;4919864;29;20131;-72
2023/04/25 01:48:54;;;;;;;9.48;3.00;;;;;;;5.55;100.00;99936.50;4919753;29;20095;-71
2023/04/25 01:51:21;;;;;;;10.75;3.40;;;;;;;5.54;100.00;99938.31;4905098;29;20048;-74
2023/04/25 01:53:48;;;;;;;8.30;3.42;;;;;;;5.38;100.00;99927.44;4920566;29;20072;-74
2023/04/25 01:56:15;;;;;;;12.63;3.30;;;;;;;5.35;100.00;99944.56;4919428;29;20048;-74
2023/04/25 01:58:41;;;;;;;16.13;4.32;;;;;;;5.39;100.00;99931.81;4918330;29;20118;-73
2023/04/25 02:01:08;;;;;;;11.73;3.25;;;;;;;5.40;100.00;99931.66;4920532;29;20059;-73
2023/04/25 02:03:34;;;;;;;11.80;4.43;;;;;;;5.43;100.00;99934.03;4922305;29;20067;-73
2023/04/25 02:06:01;;;;;;;9.23;3.38;;;;;;;5.48;100.00;99936.22;4926106;29;20080;-73
2023/04/25 02:08:28;;;;;;;9.20;3.22;;;;;;;5.50;100.00;99940.44;4925463;29;20048;-71
2023/04/25 02:10:54;;;;;;;16.45;3.83;;;;;;;5.51;100.00;99941.25;4919426;29;20064;-73
2023/04/25 02:13:21;;;;;;;11.85;3.55;;;;;;;5.40;100.00;99934.31;4916705;29;20052;-72
2023/04/25 02:15:48;;;;;;;10.20;3.42;;;;;;;5.32;100.00;99942.19;4917258;29;20052;-72
2023/04/25 02:18:16;;;;;;;13.32;4.20;;;;;;;5.28;100.00;99933.66;4919230;29;20525;-74
2023/04/25 02:20:43;;;;;;;11.02;4.25;;;;;;;5.35;100.00;99941.03;4920619;29;20048;-73
2023/04/25 02:23:09;;;;;;;9.13;3.65;;;;;;;5.16;100.00;99944.63;4921519;29;20063;-74
2023/04/25 02:25:36;;;;;;;16.27;4.07;;;;;;;5.32;100.00;99938.66;4921825;29;20100;-73
2023/04/25 02:28:03;;;;;;;8.73;3.58;;;;;;;5.36;100.00;99937.41;4919968;29;20127;-73
2023/04/25 02:30:29;;;;;;;14.85;4.18;;;;;;;5.39;100.00;99943.28;4920730;29;20131;-73
2023/04/25 02:32:56;;;;;;;12.43;4.20;;;;;;;5.40;100.00;99936.97;4921754;29;20436;-74
2023/04/25 02:35:23;;;;;;;11.40;3.72;;;;;;;5.40;100.00;99928.16;4922661;29;20051;-74
2023/04/25 02:37:49;;;;;;;14.50;4.35;;;;;;;5.38;100.00;99930.13;4924072;29;20063;-73
2023/04/25 02:40:16;;;;;;;13.73;5.22;;;;;;;5.27;100.00;99942.59;4924467;29;20480;-73
2023/04/25 02:42:42;;;;;;;13.95;4.13;;;;;;;5.32;100.00;99936.00;4923669;29;20052;-73
2023/04/25 02:45:09;;;;;;;16.25;4.32;;;;;;;5.27;100.00;99934.63;4923091;29;20040;-74
2023/04/25 02:47:36;;;;;;;10.93;4.03;;;;;;;5.34;100.00;99931.41;4923489;29;20050;-74
2023/04/25 02:50:03;;;;;;;11.27;3.85;;;;;;;5.36;100.00;99940.91;4928828;29;20052;-73
2023/04/25 02:52:29;;;;;;;11.77;3.70;;;;;;;5.37;100.00;99939.09;4926003;29;20072;-72
2023/04/25 02:54:56;;;;;;;11.00;4.50;;;;;;;5.37;100.00;99928.44;4924246;29;20047;-72
2023/04/25 02:57:22;;;;;;;15.95;4.47;;;;;;;5.24;100.00;99934.91;4925279;29;20115;-72
2023/04/25 02:59:49;;;;;;;15.93;4.95;;;;;;;5.32;100.00;99936.00;4924855;29;20056;-73
2023/04/25 03:02:15;;;;;;;17.52;4.85;;;;;;;5.32;100.00;99936.88;4927544;29;20135;-73
2023/04/25 03:04:42;;;;;;;14.38;3.80;;;;;;;5.35;100.00;99931.25;4927466;29;20056;-74
2023/04/25 03:07:08;;;;;;;13.43;4.70;;;;;;;5.37;100.00;99923.13;4927317;29;20104;-74
2023/04/25 03:09:35;;;;;;;14.35;4.28;;;;;;;5.36;100.00;99926.78;4926480;29;20054;-73
2023/04/25 03:12:01;;;;;;;12.00;4.60;;;;;;;5.39;100.00;99929.16;4926167;29;20118;-73
2023/04/25 03:14:28;;;;;;;13.85;3.90;;;;;;;5.24;100.00;99929.59;4923190;29;20048;-74
2023/04/25 03:16:54;;;;;;;11.80;4.47;;;;;;;5.27;100.00;99928.47;4928722;29;20420;-72
2023/04/25 03:19:21;;;;;;;13.77;4.32;;;;;;;5.31;100.00;99929.03;4930503;29;20055;-72
2023/04/25 03:21:48;;;;;;;10.52;3.72;;;;;;;5.26;100.00;99937.44;4928924;29;20180;-73
2023/04/25 03:24:15;;;;;;;14.60;5.07;;;;;;;5.24;100.00;99940.22;4929351;29;20056;-74
2023/04/25 03:26:41;;;;;;;15.85;5.22;;;;;;;5.26;100.00;99937.44;4930070;29;20052;-73
2023/04/25 03:29:08;;;;;;;13.23;5.15;;;;;;;5.27;100.00;99931.13;4914994;29;20166;-73
2023/04/25 03:31:35;;;;;;;13.05;4.25;;;;;;;5.19;100.00;99936.34;4924256;29;20044;-72
2023/04/25 03:34:01;;;;;;;14.93;4.78;;;;;;;5.16;100.00;99939.28;4921024;29;20052;-73
2023/04/25 03:36:28;;;;;;;18.63;4.90;;;;;;;5.29;100.00;99945.97;4925917;29;20074;-72
2023/04/25 03:38:54;;;;;;;10.13;4.07;;;;;;;5.24;100.00;99932.25;4924154;29;20048;-72
2023/04/25 03:41:21;;;;;;;12.05;4.55;;;;;;;5.28;100.00;99941.66;4924476;29;20063;-72
2023/04/25 03:43:47;;;;;;;13.48;4.03;;;;;;;5.19;100.00;99939.00;4926202;29;20094;-74
2023/04/25 03:46:14;;;;;;;20.38;5.13;;;;;;;5.22;100.00;99947.53;4914205;29;20052;-74
2023/04/25 03:48:41;;;;;;;11.35;4.43;;;;;;;5.16;100.00;99934.81;4923430;29;20102;-72
2023/04/25 03:51:07;;;;;;;12.80;4.50;;;;;;;5.22;100.00;99944.03;4924283;29;20052;-74
2023/04/25 03:53:34;;;;;;;14.07;4.80;;;;;;;5.17;100.00;99944.44;4925832;29;20052;-72
2023/04/25 03:56:00;;;;;;;13.68;4.15;;;;;;;5.11;100.00;99950.38;4926363;29;20099;-74
2023/04/25 03:58:27;;;;;;;14.05;4.78;;;;;;;5.20;100.00;99946.00;4926653;29;20051;-74
2023/04/25 04:00:53;;;;;;;15.50;4.50;;;;;;;5.17;100.00;99948.94;4928608;29;20052;-73
2023/04/25 04:03:20;;;;;;;13.60;4.80;;;;;;;5.15;100.00;99954.41;4928784;29;20127;-72
2023/04/25 04:05:47;;;;;;;10.55;4.55;;;;;;;5.18;100.00;99958.59;4925659;29;20074;-72
2023/04/25 04:08:14;;;;;;;11.88;5.53;;;;;;;5.25;100.00;99962.38;4926239;29;20528;-72
2023/04/25 04:10:40;;;;;;;15.05;5.10;;;;;;;5.26;100.00;99961.38;4924411;29;20056;-72
2023/04/25 04:13:07;;;;;;;11.02;4.22;;;;;;;5.18;100.00;99969.22;4927464;29;20075;-73
2023/04/25 04:15:33;;;;;;;12.50;4.70;;;;;;;5.14;100.00;99966.00;4927052;29;20476;-70
2023/04/25 04:18:03;;;;;;;16.55;4.93;;;;;;;5.13;100.00;99967.00;4926863;29;20394;-72
2023/04/25 04:20:32;;;;;;;12.88;4.68;;;;;;;5.14;100.00;99960.69;4927368;29;20044;-72
2023/04/25 04:22:59;;;;;;;17.55;5.00;;;;;;;5.16;100.00;99965.88;4928772;29;20078;-73
2023/04/25 04:25:26;;;;;;;17.08;4.35;;;;;;;5.15;100.00;99962.38;4922185;29;20131;-73
2023/04/25 04:27:54;;;;;;;11.23;4.20;;;;;;;5.08;100.00;99965.78;4927695;29;20089;-73
2023/04/25 04:30:23;;;;;;;15.65;4.85;;;;;;;5.10;100.00;99967.28;4927454;29;20135;-74
2023/04/25 04:32:51;;;;;;;12.55;4.18;;;;;;;5.16;100.00;99977.34;4926455;29;20072;-74
2023/04/25 04:35:18;;;;;;;12.70;4.72;;;;;;;5.23;100.00;99967.81;4925636;29;20132;-73
2023/04/25 04:37:45;;;;;;;15.48;5.43;;;;;;;5.30;100.00;99970.75;4909747;29;20511;-73
2023/04/25 04:40:15;;;;;;;14.35;4.80;;;;;;;5.29;100.00;99977.88;4926751;29;20052;-74
2023/04/25 04:42:43;;;;;;;10.98;4.05;;;;;;;5.32;100.00;99975.91;4924593;29;20458;-73
2023/04/25 04:45:10;;;;;;;12.18;4.60;;;;;;;5.33;100.00;99977.59;4924639;29;20054;-73
2023/04/25 04:47:37;;;;;;;16.45;4.95;;;;;;;5.31;100.00;99983.03;4925852;29;20052;-73
2023/04/25 04:50:04;;;;;;;15.55;5.07;;;;;;;5.29;100.00;99993.00;4926374;29;20052;-74
2023/04/25 04:52:30;;;;;;;17.55;5.40;;;;;;;5.25;100.00;99986.31;4924083;29;20040;-72
2023/04/25 04:54:57;;;;;;;12.35;4.70;;;;;;;5.35;100.00;99980.94;4926999;29;20560;-73
2023/04/25 04:57:23;;;;;;;15.90;4.70;;;;;;;5.36;100.00;99982.63;4926984;29;20044;-74
2023/04/25 04:59:50;;;;;;;16.95;5.00;;;;;;;5.35;100.00;99983.59;4929816;29;20059;-72
2023/04/25 05:02:16;;;;;;;15.07;4.65;;;;;;;5.36;100.00;99987.94;4933112;29;20048;-73
2023/04/25 05:04:43;;;;;;;24.25;5.93;;;;;;;5.45;100.00;99979.09;4934016;29;20158;-72
2023/04/25 05:07:10;;;;;;;22.63;4.93;;;;;;;5.47;100.00;99988.59;4933359;29;20058;-72
2023/04/25 05:09:36;;;;;;;94.38;12.32;;;;;;;5.46;100.00;99989.59;4930551;29;20127;-74
2023/04/25 05:12:03;;;;;;;40.00;6.28;;;;;;;5.45;100.00;99987.91;4925451;29;20052;-73
2023/04/25 05:14:30;;;;;;;17.30;4.85;;;;;;;5.52;100.00;99991.69;4923693;29;20048;-72
2023/04/25 05:16:56;;;;;;;17.33;5.28;;;;;;;5.58;100.00;99995.56;4923317;29;20048;-72
2023/04/25 05:19:23;;;;;;;17.77;5.35;;;;;;;5.28;100.00;99992.19;4923320;29;20084;-73
2023/04/25 05:21:50;;;;;;;15.57;4.57;;;;;;;5.40;100.00;99994.66;4918519;29;20052;-70
2023/04/25 05:24:16;;;;;;;14.95;5.13;;;;;;;5.46;100.00;99994.09;4914056;29;20048;-68
2023/04/25 05:26:43;;;;;;;17.38;5.30;;;;;;;5.35;100.00;99999.56;4897239;29;20060;-68
2023/04/25 05:29:09;;;;;;;20.40;4.93;;;;;;;5.29;100.00;99993.84;4913938;29;20064;-68
2023/04/25 05:31:36;;;;;;;12.73;4.57;;;;;;;5.31;100.00;99991.03;4914165;29;20055;-68
2023/04/25 05:34:03;;;;;;;13.23;4.82;;;;;;;5.54;100.00;99996.84;4914800;29;20469;-67
2023/04/25 05:36:30;;;;;;;15.68;5.03;;;;;;;5.58;100.00;100000.88;4920454;29;20050;-74
2023/04/25 05:38:57;;;;;;;17.08;5.13;;;;;;;5.63;100.00;100003.09;4921148;29;20119;-73
2023/04/25 05:41:23;;;;;;;12.77;4.53;;;;;;;5.60;100.00;100004.25;4917624;29;20515;-73
2023/04/25 05:43:50;;;;;;;12.02;4.95;;;;;;;5.73;100.00;100001.25;4917841;29;20051;-72
2023/04/25 05:46:19;;;;;;;16.75;4.72;;;;;;;5.67;100.00;100010.66;4918165;29;20040;-72
2023/04/25 05:48:46;;;;;;;14.52;5.07;;;;;;;5.46;100.00;100002.06;4907560;29;20056;-74
2023/04/25 05:51:12;;;;;;;24.23;6.32;;;;;;;5.48;100.00;100002.75;4915563;29;20055;-73
2023/04/25 05:53:39;;;;;;;19.10;5.43;;;;;;;5.61;100.00;100011.25;4915356;29;20458;-74
2023/04/25 05:56:06;;;;;;;19.00;5.32;;;;;;;5.60;100.00;100014.06;4919319;29;20412;-72
2023/04/25 05:58:32;;;;;;;22.15;5.30;;;;;;;5.66;100.00;100019.63;4919210;29;20131;-74
2023/04/25 06:00:59;;;;;;;21.33;5.75;;;;;;;5.58;100.00;100016.84;4919618;29;20055;-72
2023/04/25 06:03:25;;;;;;;81.13;12.05;;;;;;;5.49;100.00;100012.38;4918888;29;20056;-72
2023/04/25 06:05:52;;;;;;;21.30;6.78;;;;;;;5.51;100.00;100026.41;4918412;29;20461;-74
2023/04/25 06:08:19;;;;;;;14.85;5.40;;;;;;;5.52;100.00;100022.75;4918751;29;20493;-74
2023/04/25 06:10:45;;;;;;;17.45;6.40;;;;;;;5.41;100.00;100022.91;4918808;29;20450;-73
2023/04/25 06:13:12;;;;;;;18.98;6.00;;;;;;;5.44;100.00;100028.78;4902618;29;20397;-74
2023/04/25 06:15:38;;;;;;;30.17;6.38;;;;;;;5.85;100.00;100028.53;4920291;29;20453;-74
2023/04/25 06:18:05;;;;;;;16.88;5.70;;;;;;;5.75;100.00;100029.41;4917352;29;20131;-74
2023/04/25 06:20:32;;;;;;;34.67;6.50;;;;;;;5.78;100.00;100036.25;4916472;29;20052;-75
2023/04/25 06:22:58;;;;;;;15.55;5.63;;;;;;;5.71;100.00;100028.00;4917021;29;20055;-72
2023/04/25 06:25:25;;;;;;;28.60;6.72;;;;;;;5.76;100.00;100032.91;4916887;29;20048;-72
2023/04/25 06:27:52;;;;;;;27.48;6.00;;;;;;;5.89;100.00;100028.06;4916259;29;20135;-74
2023/04/25 06:30:22;;;;;;;57.90;8.20;;;;;;;5.92;100.00;100032.28;4916989;29;20478;-72
2023/04/25 06:32:48;;;;;;;34.85;6.10;;;;;;;5.86;100.00;100028.38;4916952;29;20056;-74
2023/04/25 06:35:15;;;;;;;22.73;5.93;;;;;;;5.83;100.00;100036.66;4916860;29;20044;-74
2023/04/25 06:37:41;;;;;;;25.50;6.78;;;;;;;5.94;100.00;100032.94;4917492;29;20064;-74
2023/04/25 06:40:08;;;;;;;25.48;6.30;;;;;;;5.90;100.00;100032.41;4911769;29;20096;-74
2023/04/25 06:42:35;;;;;;;19.15;6.50;;;;;;;5.87;100.00;100038.06;4916782;29;20075;-74
2023/04/25 06:45:02;;;;;;;20.20;6.18;;;;;;;5.75;100.00;100037.38;4916770;29;20056;-74
2023/04/25 06:47:29;;;;;;;27.80;5.70;;;;;;;5.79;100.00;100047.75;4916502;29;20047;-75
2023/04/25 06:49:56;;;;;;;18.45;5.88;;;;;;;5.83;100.00;100043.78;4930635;29;20071;-71
2023/04/25 06:52:23;;;;;;;18.60;5.32;;;;;;;5.94;100.00;100046.25;4927330;29;20055;-71
2023/04/25 06:54:49;;;;;;;13.13;4.93;;;;;;;5.93;100.00;100047.25;4932742;29;20052;-71
2023/04/25 06:57:16;;;;;;;21.33;5.60;;;;;;;5.66;100.00;100045.38;4932111;29;20044;-71
2023/04/25 06:59:42;;;;;;;16.88;4.90;;;;;;;5.62;100.00;100039.53;4931774;29;20055;-70
2023/04/25 07:02:09;;;;;;;20.70;4.82;;;;;;;5.51;100.00;100042.38;4930844;29;20061;-71
2023/04/25 07:04:36;;;;;;;20.45;4.85;;;;;;;5.68;100.00;100046.09;4929812;29;20115;-71
2023/04/25 07:07:03;;;;;;;12.25;4.45;;;;;;;5.72;100.00;100050.97;4929215;29;20056;-71
2023/04/25 07:09:30;;;;;;;16.42;4.43;;;;;;;5.69;100.00;100053.09;4929487;29;20130;-71
2023/04/25 07:11:56;;;;;;;9.13;4.68;;;;;;;5.52;100.00;100052.88;4929957;29;20055;-71
2023/04/25 07:14:23;;;;;;;20.65;4.72;;;;;;;5.63;100.00;100057.19;4926047;29;20127;-70
2023/04/25 07:16:49;;;;;;;16.98;4.60;;;;;;;5.56;100.00;100064.06;4899129;29;20048;-70
2023/04/25 07:19:16;;;;;;;9.38;4.38;;;;;;;5.52;100.00;100058.19;4916127;29;20516;-70
2023/04/25 07:21:42;;;;;;;14.98;4.80;;;;;;;5.59;100.00;100065.59;4916479;29;20659;-70
2023/04/25 07:24:09;;;;;;;13.57;4.85;;;;;;;5.56;100.00;100066.72;4916503;29;20052;-72
2023/04/25 07:26:35;;;;;;;21.20;5.63;;;;;;;5.54;100.00;100084.66;4916100;29;20050;-71
2023/04/25 07:29:02;;;;;;;21.05;5.88;;;;;;;5.56;100.00;100088.00;4915336;29;20052;-71
2023/04/25 07:31:28;;;;;;;11.75;5.30;;;;;;;5.64;100.00;100077.47;4915843;29;20048;-71
2023/04/25 07:33:55;;;;;;;22.25;5.40;;;;;;;5.70;100.00;100082.25;4915743;29;20561;-71
2023/04/25 07:36:21;;;;;;;17.95;5.03;;;;;;;5.59;100.00;100086.88;4916054;29;20059;-71
2023/04/25 07:38:48;;;;;;;17.85;4.80;;;;;;;5.69;100.00;100088.53;4915681;29;20469;-71
2023/04/25 07:41:15;;;;;;;31.40;5.88;;;;;;;5.58;100.00;100090.53;4915781;29;20048;-71
2023/04/25 07:43:42;;;;;;;27.25;5.05;;;;;;;5.61;100.00;100096.41;4916029;29;20052;-71
2023/04/25 07:46:08;;;;;;;14.05;4.70;;;;;;;5.86;100.00;100099.41;4915549;29;20489;-71
2023/04/25 07:48:35;;;;;;;24.85;6.43;;;;;;;5.81;100.00;100099.03;4915751;29;20395;-71
2023/04/25 07:51:01;;;;;;;20.17;4.72;;;;;;;5.77;100.00;100095.81;4915634;29;20052;-71
2023/04/25 07:53:28;;;;;;;22.58;5.88;;;;;;;5.68;100.00;100105.47;4915431;29;20059;-70
2023/04/25 07:55:54;;;;;;;17.15;4.82;;;;;;;5.56;100.00;100109.31;4915484;29;20158;-71
2023/04/25 07:58:21;;;;;;;15.43;5.25;;;;;;;5.50;100.00;100118.69;4915062;29;20063;-70
2023/04/25 08:00:48;;;;;;;22.70;4.97;;;;;;;5.55;100.00;100118.25;4915365;29;20099;-71
2023/04/25 08:03:15;;;;;;;35.67;5.50;;;;;;;5.51;100.00;100119.53;4914452;29;20052;-71
2023/04/25 08:05:42;;;;;;;19.05;4.68;;;;;;;5.66;100.00;100118.06;4916056;29;20127;-71
2023/04/25 08:08:09;;;;;;;32.70;6.43;;;;;;;5.90;100.00;100116.75;4915615;29;20131;-71
2023/04/25 08:10:36;;;;;;;35.03;7.15;;;;;;;6.07;100.00;100121.34;4915140;29;20165;-71
2023/04/25 08:13:02;;;;;;;46.20;7.05;;;;;;;6.32;100.00;100124.34;4915132;29;20052;-71
2023/04/25 08:15:29;;;;;;;30.60;5.68;;;;;;;6.24;100.00;100122.41;4915106;29;20087;-70
2023/04/25 08:17:55;;;;;;;22.67;5.05;;;;;;;6.00;100.00;100131.72;4913900;29;20135;-70
2023/04/25 08:20:22;;;;;;;31.88;5.82;;;;;;;6.16;100.00;100133.78;4914874;29;20059;-71
2023/04/25 08:22:49;;;;;;;34.10;5.35;;;;;;;6.34;100.00;100135.72;4914740;29;20056;-71
2023/04/25 08:25:15;;;;;;;38.22;5.47;;;;;;;6.73;100.00;100132.84;4914795;29;20062;-69
2023/04/25 08:27:43;;;;;;;25.80;4.80;;;;;;;6.85;100.00;100137.81;4915425;29;20059;-70
2023/04/25 08:30:09;;;;;;;23.08;5.00;;;;;;;7.30;100.00;100149.44;4914774;29;20050;-69
2023/04/25 08:32:38;;;;;;;29.45;4.97;;;;;;;7.06;100.00;100148.19;4914896;29;20103;-69
2023/04/25 08:35:05;;;;;;;30.15;5.20;;;;;;;7.01;100.00;100147.78;4914457;29;20078;-71
2023/04/25 08:37:32;;;;;;;31.73;6.07;;;;;;;6.79;100.00;100153.56;4914745;29;20130;-70
2023/04/25 08:39:59;;;;;;;22.90;4.00;;;;;;;6.79;100.00;100153.56;4914352;29;20060;-71
2023/04/25 08:42:27;;;;;;;25.00;4.95;;;;;;;6.69;100.00;100162.44;4914941;29;20068;-70
2023/04/25 08:44:55;;;;;;;36.00;5.22;;;;;;;6.62;100.00;100172.03;4914189;29;20079;-71
2023/04/25 08:47:24;;;;;;;34.90;4.60;;;;;;;7.09;100.00;100173.72;4914265;29;20135;-70
2023/04/25 08:49:53;;;;;;;25.30;4.38;;;;;;;7.36;100.00;100180.81;4914850;29;20151;-70
2023/04/25 08:52:24;;;;;;;36.08;4.35;;;;;;;7.97;87.75;100173.84;4914293;29;20055;-71
2023/04/25 08:54:52;;;;;;;17.02;3.20;;;;;;;8.30;73.09;100183.75;4914477;29;20058;-70
2023/04/25 08:57:19;;;;;;;25.98;4.38;;;;;;;8.60;69.52;100182.38;4914369;29;20048;-68
2023/04/25 08:59:47;;;;;;;24.42;4.32;;;;;;;9.37;64.03;100184.97;4914379;29;20076;-70
2023/04/25 09:02:16;;;;;;;20.27;3.38;;;;;;;9.52;59.99;100185.16;4914467;29;20040;-70
2023/04/25 09:04:44;;;;;;;22.98;3.85;;;;;;;9.93;57.27;100166.38;4913470;29;20481;-70
2023/04/25 09:07:10;;;;;;;23.75;4.63;;;;;;;10.62;56.59;100174.78;4914616;29;20048;-71
2023/04/25 09:09:37;;;;;;;16.45;3.67;;;;;;;11.26;54.26;100178.13;4914438;29;20115;-71
2023/04/25 09:12:05;;;;;;;21.70;3.85;;;;;;;11.61;51.31;100173.16;4913544;29;20445;-71
2023/04/25 09:14:31;;;;;;;18.10;4.38;;;;;;;11.80;50.18;100172.69;4914069;29;20056;-71
2023/04/25 09:17:00;;;;;;;17.95;3.92;;;;;;;12.55;48.39;100178.97;4913960;29;20445;-71
2023/04/25 09:19:33;;;;;;;24.75;3.53;;;;;;;12.56;46.98;100181.50;4914519;29;20127;-71
2023/04/25 09:22:04;;;;;;;21.02;3.35;;;;;;;12.40;47.91;100192.44;4914282;29;20062;-72
2023/04/25 09:24:45;;;;;;;16.20;3.47;;;;;;;11.08;48.11;100196.34;4896983;29;20067;-71
2023/04/25 09:27:18;;;;;;;19.70;3.67;;;;;;;11.03;49.21;100190.66;4914345;29;20051;-71
2023/04/25 09:29:46;;;;;;;16.52;3.85;;;;;;;11.33;49.11;100194.34;4915738;29;20055;-71
2023/04/25 09:32:23;;;;;;;26.38;4.43;;;;;;;11.47;48.79;100190.91;4918280;29;20056;-71
2023/04/25 09:34:52;;;;;;;18.50;3.75;;;;;;;10.45;51.62;100190.06;4917708;29;20390;-71
2023/04/25 09:37:28;;;;;;;20.23;4.20;;;;;;;10.22;52.61;100189.94;4917505;29;20438;-71
2023/04/25 09:40:05;;;;;;;27.00;4.32;;;;;;;9.55;54.32;100201.72;4917617;29;20054;-71
2023/04/25 09:42:34;;;;;;;26.35;4.75;;;;;;;8.84;56.27;100204.84;4917731;29;20072;-68
2023/04/25 09:45:03;;;;;;;19.75;4.18;;;;;;;8.99;56.83;100203.25;4917621;29;20108;-71
2023/04/25 09:47:30;;;;;;;16.63;4.18;;;;;;;8.77;57.38;100203.84;4917600;29;20048;-71
2023/04/25 09:49:58;;;;;;;22.30;4.45;;;;;;;8.97;57.18;100205.25;4917669;29;20068;-71
2023/04/25 09:52:25;;;;;;;31.98;4.15;;;;;;;9.06;56.27;100216.81;4917677;29;20052;-71
2023/04/25 09:54:53;;;;;;;15.80;3.92;;;;;;;8.98;56.21;100211.44;4917730;29;20480;-71
2023/04/25 09:57:21;;;;;;;26.45;4.20;;;;;;;8.65;56.56;100221.19;4917163;29;20499;-71
2023/04/25 09:59:53;;;;;;;15.77;2.95;;;;;;;8.51;56.13;100210.06;4917252;29;20056;-71
2023/04/25 10:02:23;;;;;;;19.70;3.25;;;;;;;8.49;56.27;100228.09;4917566;29;20051;-70
2023/04/25 10:04:54;;;;;;;15.93;3.23;;;;;;;8.38;54.89;100221.19;4916984;29;20048;-71
2023/04/25 10:07:28;;;;;;;15.93;4.07;;;;;;;8.35;54.81;100215.31;4917149;29;20059;-71
2023/04/25 10:10:03;;;;;;;15.85;3.42;;;;;;;8.16;54.05;100220.88;4917108;29;20062;-71
2023/04/25 10:12:31;;;;;;;19.30;3.55;;;;;;;8.23;54.45;100214.75;4917551;29;20091;-71
2023/04/25 10:14:58;;;;;;;24.83;3.35;;;;;;;8.28;54.73;100224.97;4917400;29;20048;-71
2023/04/25 10:17:27;;;;;;;30.83;4.93;;;;;;;8.46;54.90;100228.41;4917061;29;20093;-71
2023/04/25 10:19:55;;;;;;;22.30;4.60;;;;;;;8.36;54.21;100217.00;4916596;29;20059;-71
2023/04/25 10:22:40;;;;;;;23.95;4.10;;;;;;;8.30;53.38;100231.00;4916979;29;20052;-70
2023/04/25 10:25:08;;;;;;;19.00;3.60;;;;;;;8.49;53.69;100238.78;4917335;29;20058;-70
2023/04/25 10:27:35;;;;;;;17.80;3.75;;;;;;;8.45;53.28;100233.94;4916717;29;20044;-70
2023/04/25 10:30:11;;;;;;;15.25;3.30;;;;;;;8.73;52.88;100229.22;4917076;29;20147;-70
2023/04/25 10:32:37;;;;;;;19.10;3.80;;;;;;;8.84;52.50;100231.59;4917127;29;20056;-71
2023/04/25 10:35:13;;;;;;;17.73;3.08;;;;;;;8.73;52.81;100224.72;4916683;29;20497;-71
2023/04/25 10:38:15;;;;;;;12.75;3.38;;;;;;;8.59;52.31;100236.00;4916243;29;20052;-71
2023/04/25 10:41:05;;;;;;;14.07;3.17;;;;;;;8.09;54.10;100231.38;4869837;29;20070;-71
2023/04/25 10:43:31;;;;;;;23.83;3.60;;;;;;;8.02;53.17;100244.50;4916098;29;20127;-70
2023/04/25 10:46:01;;;;;;;20.40;3.17;;;;;;;7.96;54.15;100239.78;4899512;29;20044;-70
2023/04/25 10:48:29;;;;;;;24.38;3.70;;;;;;;7.80;54.76;100248.44;4916696;29;20055;-71
2023/04/25 10:51:09;;;;;;;18.95;3.65;;;;;;;7.36;55.49;100248.38;4916557;29;20420;-70
2023/04/25 10:53:36;;;;;;;14.18;2.50;;;;;;;7.42;55.73;100252.25;4916177;29;20128;-70
2023/04/25 10:56:19;;;;;;;26.30;4.00;;;;;;;7.56;56.29;100246.41;4916393;29;20072;-70
2023/04/25 10:58:46;;;;;;;20.48;3.97;;;;;;;8.03;55.22;100253.34;4915157;29;20481;-70
2023/04/25 11:01:20;;;;;;;18.75;3.47;;;;;;;7.75;55.91;100252.59;4916352;29;20114;-70
2023/04/25 11:03:50;;;;;;;24.58;3.78;;;;;;;7.68;54.61;100249.69;4916695;29;20055;-70
2023/04/25 11:06:32;;;;;;;13.45;3.60;;;;;;;8.04;53.19;100255.03;4917546;29;20386;-70
2023/04/25 11:09:01;;;;;;;16.83;2.70;;;;;;;8.12;53.58;100261.28;4916733;29;20071;-70
2023/04/25 11:11:28;;;;;;;11.88;2.72;;;;;;;7.98;53.73;100267.16;4917040;29;20048;-69
2023/04/25 11:13:55;;;;;;;11.02;3.10;;;;;;;7.68;52.79;100270.22;4917421;29;20517;-70
2023/04/25 11:16:24;;;;;;;18.42;3.20;;;;;;;7.59;54.28;100275.47;4916602;29;20052;-71
2023/04/25 11:18:57;;;;;;;21.45;3.72;;;;;;;7.30;54.33;100272.16;4907004;29;20051;-70
2023/04/25 11:21:27;;;;;;;29.85;3.33;;;;;;;7.25;54.95;100280.59;4917412;29;20052;-72
2023/04/25 11:23:56;;;;;;;15.38;2.58;;;;;;;7.19;55.90;100292.72;4916959;29;20055;-71
2023/04/25 11:26:24;;;;;;;20.23;3.78;;;;;;;7.22;54.52;100298.72;4916178;29;20052;-69
2023/04/25 11:28:51;;;;;;;25.58;5.18;;;;;;;6.99;54.66;100300.97;4917482;29;20055;-68
2023/04/25 11:31:21;;;;;;;11.52;2.80;;;;;;;6.87;53.07;100303.81;4916682;29;20474;-70